createdAt,value
2019-03-21T00:01:53.634Z,16.67
2019-03-21T00:04:21.637Z,15.73
2019-03-21T00:06:49.250Z,15.63
2019-03-21T00:09:17.634Z,15.77
2019-03-21T00:12:24.042Z,16.17
2019-03-21T00:15:30.879Z,17.07
2019-03-21T00:18:02.087Z,16.93
2019-03-21T00:20:30.032Z,18.63
2019-03-21T00:22:57.662Z,18.57
2019-03-21T00:25:25.418Z,18.97
2019-03-21T00:27:53.117Z,19.07
2019-03-21T00:30:21.529Z,18.57
2019-03-21T00:32:49.367Z,18.63
2019-03-21T00:35:17.693Z,19.13
2019-03-21T00:37:45.762Z,20.17
2019-03-21T00:40:16.426Z,18.97
2019-03-21T00:42:44.433Z,18.27
2019-03-21T00:45:13.751Z,18.33
2019-03-21T00:47:41.552Z,18.57
2019-03-21T01:01:21.559Z,19.53
2019-03-21T01:03:49.197Z,18.50
2019-03-21T01:06:17.078Z,19.07
2019-03-21T01:08:44.801Z,20.33
2019-03-21T01:11:12.416Z,20.00
2019-03-21T01:13:40.061Z,19.53
2019-03-21T01:16:08.159Z,20.87
2019-03-21T01:18:36.217Z,19.97
2019-03-21T01:21:03.849Z,20.33
2019-03-21T01:23:31.549Z,20.07
2019-03-21T01:26:00.108Z,20.17
2019-03-21T01:28:27.808Z,21.17
2019-03-21T01:30:55.572Z,21.17
2019-03-21T01:33:23.210Z,21.30
2019-03-21T01:35:50.882Z,22.03
2019-03-21T01:38:18.588Z,22.17
2019-03-21T01:40:47.022Z,22.37
2019-03-21T01:43:14.671Z,22.00
2019-03-21T01:45:42.420Z,22.67
2019-03-21T01:48:10.028Z,22.37
2019-03-21T01:50:37.782Z,21.70
2019-03-21T01:53:05.505Z,22.27
2019-03-21T01:55:33.143Z,22.23
2019-03-21T01:58:00.780Z,21.97
2019-03-21T02:00:31.387Z,22.00
2019-03-21T02:02:59.031Z,21.70
2019-03-21T02:05:26.700Z,22.37
2019-03-21T02:07:54.475Z,21.10
2019-03-21T02:11:02.646Z,21.20
2019-03-21T02:13:30.783Z,21.80
2019-03-21T02:15:59.241Z,20.67
2019-03-21T02:18:28.012Z,21.97
2019-03-21T02:20:55.783Z,21.27
2019-03-21T02:23:23.809Z,22.53
2019-03-21T02:25:51.443Z,21.77
2019-03-21T02:28:19.260Z,22.53
2019-03-21T02:30:47.241Z,21.93
2019-03-21T02:33:34.111Z,21.47
2019-03-21T02:36:01.950Z,20.83
2019-03-21T02:38:30.318Z,20.77
2019-03-21T02:40:59.383Z,20.13
2019-03-21T02:43:26.981Z,21.97
2019-03-21T02:45:54.608Z,21.50
2019-03-21T02:48:23.097Z,21.83
2019-03-21T02:50:51.261Z,20.37
2019-03-21T02:53:18.869Z,21.83
2019-03-21T02:55:46.622Z,22.47
2019-03-21T02:58:14.253Z,23.90
2019-03-21T03:00:42.046Z,22.00
2019-03-21T03:03:09.790Z,21.87
2019-03-21T03:05:37.447Z,22.30
2019-03-21T03:08:06.024Z,21.53
2019-03-21T03:10:39.592Z,21.50
2019-03-21T03:13:07.258Z,20.63
2019-03-21T03:15:34.906Z,21.90
2019-03-21T03:18:02.789Z,23.53
2019-03-21T03:20:30.420Z,21.57
2019-03-21T03:22:58.072Z,21.97
2019-03-21T03:25:25.831Z,22.30
2019-03-21T03:27:54.977Z,23.07
2019-03-21T03:30:23.098Z,21.93
2019-03-21T03:33:02.780Z,22.33
2019-03-21T03:35:30.526Z,20.63
2019-03-21T03:37:58.166Z,21.17
2019-03-21T03:40:28.847Z,20.73
2019-03-21T03:42:56.673Z,19.97
2019-03-21T03:45:37.379Z,21.67
2019-03-21T03:47:57.106Z,22.20
2019-03-21T03:50:25.164Z,20.63
2019-03-21T03:52:53.233Z,19.43
2019-03-21T03:55:21.051Z,19.67
2019-03-21T03:57:48.970Z,19.27
2019-03-21T04:00:17.583Z,20.40
2019-03-21T04:02:46.547Z,21.03
2019-03-21T04:05:14.248Z,20.13
2019-03-21T04:07:42.268Z,19.13
2019-03-21T04:10:31.019Z,19.50
2019-03-21T04:12:58.850Z,18.83
2019-03-21T04:15:26.503Z,18.90
2019-03-21T04:17:54.620Z,19.57
2019-03-21T04:20:24.659Z,18.60
2019-03-21T04:22:52.708Z,18.73
2019-03-21T04:25:23.950Z,18.67
2019-03-21T04:27:51.580Z,19.17
2019-03-21T04:30:19.261Z,19.60
2019-03-21T04:32:46.965Z,20.37
2019-03-21T04:35:14.676Z,19.23
2019-03-21T04:37:42.433Z,20.33
2019-03-21T04:40:11.267Z,20.87
2019-03-21T04:42:40.174Z,21.13
2019-03-21T04:45:10.900Z,21.60
2019-03-21T04:47:38.623Z,23.00
2019-03-21T04:50:08.288Z,22.13
2019-03-21T04:52:35.921Z,23.00
2019-03-21T04:55:04.314Z,22.90
2019-03-21T04:57:32.371Z,23.37
2019-03-21T05:00:00.013Z,21.60
2019-03-21T05:02:27.731Z,23.57
2019-03-21T05:04:55.362Z,24.47
2019-03-21T05:07:24.215Z,23.77
2019-03-21T05:10:11.394Z,23.00
2019-03-21T05:12:39.428Z,22.50
2019-03-21T05:15:09.924Z,24.47
2019-03-21T05:17:57.910Z,23.60
2019-03-21T05:20:26.172Z,24.50
2019-03-21T05:22:53.581Z,25.07
2019-03-21T05:25:21.285Z,24.57
2019-03-21T05:27:48.595Z,24.20
2019-03-21T05:30:19.580Z,24.53
2019-03-21T05:32:47.198Z,24.30
2019-03-21T05:35:16.749Z,24.03
2019-03-21T05:37:56.816Z,24.83
2019-03-21T05:40:24.786Z,24.73
2019-03-21T05:42:56.542Z,26.77
2019-03-21T05:45:24.235Z,25.73
2019-03-21T05:47:51.898Z,25.43
2019-03-21T05:50:19.545Z,26.20
2019-03-21T05:52:47.253Z,25.07
2019-03-21T05:55:15.109Z,25.80
2019-03-21T05:57:42.801Z,25.30
2019-03-21T06:00:31.600Z,25.03
2019-03-21T06:03:01.388Z,25.87
2019-03-21T06:05:28.769Z,25.03
2019-03-21T06:08:00.322Z,24.80
2019-03-21T06:10:28.031Z,24.93
2019-03-21T06:12:55.332Z,24.20
2019-03-21T06:15:25.712Z,26.20
2019-03-21T06:18:27.186Z,24.47
2019-03-21T06:21:16.237Z,24.27
2019-03-21T06:24:06.841Z,24.53
2019-03-21T06:27:14.723Z,23.67
2019-03-21T06:29:42.705Z,22.90
2019-03-21T06:32:12.867Z,23.70
2019-03-21T06:34:40.274Z,23.37
2019-03-21T06:37:08.815Z,23.60
2019-03-21T06:39:36.512Z,23.27
2019-03-21T06:42:04.748Z,24.53
2019-03-21T06:44:32.592Z,23.63
2019-03-21T06:47:00.278Z,23.90
2019-03-21T06:49:27.985Z,24.53
2019-03-21T06:51:55.636Z,25.23
2019-03-21T06:54:23.918Z,24.90
2019-03-21T06:56:51.947Z,24.67
2019-03-21T06:59:20.973Z,24.30
2019-03-21T07:01:48.995Z,25.70
2019-03-21T07:04:16.853Z,23.90
2019-03-21T07:06:44.522Z,25.13
2019-03-21T07:09:12.121Z,24.60
2019-03-21T07:11:39.794Z,25.77
2019-03-21T07:14:07.807Z,26.03
2019-03-21T07:16:35.468Z,24.93
2019-03-21T07:19:03.316Z,25.67
2019-03-21T07:21:31.158Z,25.63
2019-03-21T07:23:58.813Z,25.80
2019-03-21T07:26:26.521Z,26.23
2019-03-21T07:28:54.147Z,25.50
2019-03-21T07:31:21.861Z,26.33
2019-03-21T07:33:49.533Z,26.57
2019-03-21T07:36:17.160Z,27.20
2019-03-21T07:38:44.778Z,27.70
2019-03-21T07:41:12.570Z,27.90
2019-03-21T07:43:40.224Z,27.57
2019-03-21T07:46:07.896Z,28.43
2019-03-21T07:48:36.145Z,29.50
2019-03-21T07:51:03.777Z,29.20
2019-03-21T07:53:31.421Z,30.97
2019-03-21T07:55:59.253Z,30.10
2019-03-21T07:58:26.883Z,29.90
2019-03-21T08:00:54.536Z,30.30
2019-03-21T08:03:22.239Z,29.50
2019-03-21T08:05:49.865Z,29.80
2019-03-21T08:08:17.780Z,28.30
2019-03-21T08:10:45.469Z,28.20
2019-03-21T08:13:13.350Z,29.30
2019-03-21T08:15:41.256Z,28.70
2019-03-21T08:18:08.937Z,29.97
2019-03-21T08:20:36.925Z,29.57
2019-03-21T08:23:04.873Z,29.07
2019-03-21T08:25:32.583Z,28.80
2019-03-21T08:28:00.562Z,28.47
2019-03-21T08:30:51.807Z,27.83
2019-03-21T08:33:19.196Z,28.07
2019-03-21T08:35:46.453Z,27.57
2019-03-21T08:38:33.280Z,27.47
2019-03-21T08:41:00.817Z,27.10
2019-03-21T08:43:28.342Z,26.57
2019-03-21T08:45:55.901Z,28.10
2019-03-21T08:48:23.542Z,27.67
2019-03-21T08:50:51.234Z,28.10
2019-03-21T08:53:18.813Z,27.00
2019-03-21T08:55:46.487Z,27.33
2019-03-21T08:58:14.088Z,27.40
2019-03-21T09:00:41.399Z,26.10
2019-03-21T09:03:08.787Z,25.93
2019-03-21T09:05:36.438Z,26.83
2019-03-21T09:08:23.111Z,26.43
2019-03-21T09:10:50.369Z,26.57
2019-03-21T09:13:17.765Z,26.20
2019-03-21T09:15:45.214Z,25.17
2019-03-21T09:18:13.056Z,24.53
2019-03-21T09:20:41.040Z,23.60
2019-03-21T09:23:09.340Z,22.90
2019-03-21T09:25:37.277Z,21.83
2019-03-21T09:28:04.830Z,20.23
2019-03-21T09:30:32.252Z,19.73
2019-03-21T09:33:18.770Z,20.50
2019-03-21T09:35:46.186Z,20.93
2019-03-21T09:38:13.564Z,20.47
2019-03-21T09:40:41.280Z,20.60
2019-03-21T09:43:08.721Z,20.00
2019-03-21T09:45:36.309Z,18.47
2019-03-21T09:48:03.642Z,18.20
2019-03-21T09:50:31.424Z,18.13
2019-03-21T09:52:59.063Z,19.47
2019-03-21T09:55:26.742Z,17.63
2019-03-21T09:57:54.310Z,18.30
2019-03-21T10:00:41.063Z,18.43
2019-03-21T10:03:08.555Z,19.00
2019-03-21T10:05:35.972Z,18.70
2019-03-21T10:08:44.328Z,18.70
2019-03-21T10:11:11.978Z,18.70
2019-03-21T10:13:58.647Z,18.13
2019-03-21T10:16:26.318Z,18.90
2019-03-21T10:18:53.619Z,19.07
2019-03-21T10:21:20.951Z,20.33
2019-03-21T10:23:48.263Z,17.57
2019-03-21T10:26:15.641Z,19.80
2019-03-21T10:28:43.110Z,18.90
2019-03-21T10:31:10.564Z,18.87
2019-03-21T10:33:37.832Z,19.17
2019-03-21T10:36:06.057Z,17.47
2019-03-21T10:38:33.733Z,16.97
2019-03-21T10:41:01.131Z,16.50
2019-03-21T10:43:28.447Z,17.23
2019-03-21T10:45:55.746Z,16.97
2019-03-21T10:48:23.632Z,16.30
2019-03-21T10:50:52.686Z,17.40
2019-03-21T10:53:20.346Z,18.13
2019-03-21T10:55:48.427Z,16.63
2019-03-21T10:58:16.503Z,16.83
2019-03-21T11:00:44.218Z,18.43
2019-03-21T11:03:11.852Z,18.83
2019-03-21T11:05:40.453Z,19.23
2019-03-21T11:08:09.880Z,18.03
2019-03-21T11:10:38.811Z,19.50
2019-03-21T11:13:25.768Z,19.50
2019-03-21T11:15:53.425Z,19.00
2019-03-21T11:18:21.547Z,20.27
2019-03-21T11:20:49.625Z,19.37
2019-03-21T11:23:17.252Z,19.47
2019-03-21T11:25:44.891Z,18.40
2019-03-21T11:28:13.037Z,20.33
2019-03-21T11:30:42.633Z,19.50
2019-03-21T11:33:10.323Z,21.40
2019-03-21T11:35:38.765Z,20.97
2019-03-21T11:38:06.867Z,20.17
2019-03-21T11:40:34.765Z,20.70
2019-03-21T11:43:03.661Z,21.20
2019-03-21T11:45:31.511Z,22.43
2019-03-21T11:47:59.979Z,22.33
2019-03-21T11:50:28.834Z,20.93
2019-03-21T11:52:56.776Z,22.07
2019-03-21T11:55:43.467Z,21.97
2019-03-21T11:58:10.843Z,21.57
2019-03-21T12:03:28.125Z,20.80
2019-03-21T12:05:56.579Z,21.93
2019-03-21T12:08:24.557Z,22.27
2019-03-21T12:10:53.040Z,21.07
2019-03-21T12:13:21.002Z,20.57
2019-03-21T12:15:48.658Z,20.97
2019-03-21T12:18:16.359Z,21.30
2019-03-21T12:20:43.998Z,21.93
2019-03-21T12:23:11.805Z,21.40
2019-03-21T12:25:40.141Z,22.00
2019-03-21T12:28:07.838Z,23.07
2019-03-21T12:30:39.914Z,22.43
2019-03-21T12:33:07.931Z,22.73
2019-03-21T12:35:36.208Z,22.73
2019-03-21T12:38:04.474Z,20.43
2019-03-21T12:40:32.964Z,21.20
2019-03-21T12:43:00.625Z,22.00
2019-03-21T12:45:29.240Z,22.53
2019-03-21T12:47:56.919Z,22.37
2019-03-21T12:50:25.563Z,21.87
2019-03-21T12:52:53.451Z,20.90
2019-03-21T12:55:21.141Z,21.57
2019-03-21T12:57:49.171Z,22.00
2019-03-21T13:00:58.028Z,21.43
2019-03-21T13:03:26.634Z,21.53
2019-03-21T13:05:56.213Z,20.80
2019-03-21T13:08:33.438Z,21.93
2019-03-21T13:10:54.437Z,22.80
2019-03-21T13:13:42.837Z,22.40
2019-03-21T13:16:30.167Z,22.70
2019-03-21T13:18:57.695Z,23.60
2019-03-21T13:21:25.923Z,21.53
2019-03-21T13:23:55.275Z,22.13
2019-03-21T13:26:23.524Z,22.50
2019-03-21T13:28:52.486Z,22.43
2019-03-21T13:31:24.508Z,20.90
2019-03-21T13:33:53.825Z,22.87
2019-03-21T13:36:21.991Z,22.10
2019-03-21T13:38:53.665Z,22.57
2019-03-21T13:41:41.184Z,23.47
2019-03-21T13:44:09.281Z,22.27
2019-03-21T13:46:37.924Z,21.87
2019-03-21T13:49:06.165Z,21.70
2019-03-21T13:51:36.095Z,22.13
2019-03-21T13:54:03.892Z,21.03
2019-03-21T13:56:37.955Z,22.07
2019-03-21T13:59:01.117Z,22.33
2019-03-21T14:01:28.482Z,23.13
2019-03-21T14:03:55.805Z,23.73
2019-03-21T14:06:23.113Z,23.33
2019-03-21T14:08:50.385Z,23.30
2019-03-21T14:11:19.339Z,22.47
2019-03-21T14:13:47.759Z,24.90
2019-03-21T14:16:34.455Z,30.13
2019-03-21T14:19:01.881Z,22.00
2019-03-21T14:21:29.298Z,26.70
2019-03-21T14:23:56.757Z,27.63
2019-03-21T14:26:24.163Z,23.40
2019-03-21T14:28:51.556Z,24.37
2019-03-21T14:31:19.333Z,22.53
2019-03-21T14:33:47.054Z,22.70
2019-03-21T14:36:14.462Z,23.40
2019-03-21T14:38:41.849Z,24.80
2019-03-21T14:41:09.235Z,23.43
2019-03-21T14:43:36.697Z,23.27
2019-03-21T14:46:04.012Z,21.97
2019-03-21T14:48:31.623Z,30.93
2019-03-21T14:50:59.045Z,22.67
2019-03-21T14:53:29.152Z,23.07
2019-03-21T14:55:56.108Z,22.97
2019-03-21T14:58:24.444Z,24.40
2019-03-21T15:00:51.815Z,25.77
2019-03-21T15:03:19.191Z,25.20
2019-03-21T15:08:41.642Z,23.43
2019-03-21T15:11:16.929Z,22.90
2019-03-21T15:16:07.817Z,32.53
2019-03-21T15:18:36.372Z,25.67
2019-03-21T15:21:23.916Z,25.93
2019-03-21T15:23:59.483Z,24.93
2019-03-21T15:26:21.291Z,28.33
2019-03-21T15:28:48.633Z,27.87
2019-03-21T15:31:16.374Z,24.23
2019-03-21T15:33:43.691Z,25.87
2019-03-21T15:36:11.078Z,25.50
2019-03-21T15:38:38.552Z,24.93
2019-03-21T15:41:06.017Z,33.07
2019-03-21T15:43:33.331Z,29.83
2019-03-21T15:46:00.715Z,23.53
2019-03-21T15:48:28.211Z,24.93
2019-03-21T15:51:04.506Z,23.07
2019-03-21T15:53:25.327Z,23.80
2019-03-21T15:55:52.858Z,24.30
2019-03-21T15:58:21.373Z,24.70
2019-03-21T16:00:49.124Z,23.80
2019-03-21T16:03:16.441Z,25.30
2019-03-21T16:05:43.916Z,25.27
2019-03-21T16:08:11.359Z,25.37
2019-03-21T16:10:38.754Z,24.77
2019-03-21T16:13:06.628Z,25.50
2019-03-21T16:15:34.080Z,26.37
2019-03-21T16:18:02.490Z,25.30
2019-03-21T16:20:29.901Z,25.03
2019-03-21T16:22:58.286Z,24.17
2019-03-21T16:25:26.417Z,25.00
2019-03-21T16:27:53.907Z,23.97
2019-03-21T16:30:21.208Z,25.40
2019-03-21T16:32:48.806Z,23.83
2019-03-21T16:35:16.153Z,25.33
2019-03-21T16:37:43.557Z,25.57
2019-03-21T16:40:13.105Z,25.17
2019-03-21T16:42:40.529Z,26.23
2019-03-21T16:45:08.025Z,24.13
2019-03-21T16:47:35.397Z,23.17
2019-03-21T16:50:03.722Z,23.13
2019-03-21T16:52:31.119Z,21.97
2019-03-21T16:54:58.376Z,21.97
2019-03-21T16:57:25.912Z,22.27
2019-03-21T17:00:05.210Z,23.00
2019-03-21T17:02:32.543Z,21.97
2019-03-21T17:04:59.922Z,20.37
2019-03-21T17:07:27.320Z,20.60
2019-03-21T17:09:57.816Z,21.47
2019-03-21T17:12:24.358Z,20.47
2019-03-21T17:14:51.644Z,21.03
2019-03-21T17:17:19.265Z,22.03
2019-03-21T17:19:46.661Z,25.13
2019-03-21T17:22:14.098Z,23.47
2019-03-21T17:24:41.722Z,23.03
2019-03-21T17:27:09.269Z,22.47
2019-03-21T17:29:36.548Z,21.37
2019-03-21T17:32:04.148Z,21.63
2019-03-21T17:34:31.541Z,20.00
2019-03-21T17:36:58.831Z,20.63
2019-03-21T17:39:26.184Z,20.23
2019-03-21T17:41:53.460Z,20.87
2019-03-21T17:44:20.757Z,21.70
2019-03-21T17:46:48.296Z,22.23
2019-03-21T17:49:15.676Z,21.33
2019-03-21T17:51:43.335Z,23.00
2019-03-21T17:54:10.826Z,23.50
2019-03-21T17:56:41.300Z,23.90
2019-03-21T17:59:08.563Z,23.50
2019-03-21T18:01:48.380Z,21.73
2019-03-21T18:04:28.604Z,21.70
2019-03-21T18:06:56.396Z,23.70
2019-03-21T18:09:24.430Z,22.60
2019-03-21T18:11:54.211Z,21.50
2019-03-21T18:14:21.971Z,21.63
2019-03-21T18:16:49.601Z,25.47
2019-03-21T18:19:17.249Z,22.50
2019-03-21T18:21:45.033Z,20.67
2019-03-21T18:24:12.888Z,22.77
2019-03-21T18:26:40.526Z,22.63
2019-03-21T18:29:08.693Z,22.33
2019-03-21T18:31:36.360Z,23.43
2019-03-21T18:34:04.015Z,22.30
2019-03-21T18:36:31.681Z,23.53
2019-03-21T18:39:00.009Z,21.33
2019-03-21T18:41:28.858Z,25.00
2019-03-21T18:43:56.453Z,24.13
2019-03-21T18:46:23.729Z,26.07
2019-03-21T18:48:51.137Z,25.50
2019-03-21T18:51:18.651Z,21.43
2019-03-21T18:53:46.201Z,21.90
2019-03-21T18:56:13.527Z,22.20
2019-03-21T18:58:41.071Z,22.70
2019-03-21T19:01:58.111Z,23.13
2019-03-21T19:04:18.761Z,19.97
2019-03-21T19:06:46.750Z,22.33
2019-03-21T19:09:14.389Z,22.43
2019-03-21T19:11:42.510Z,24.80
2019-03-21T19:14:10.163Z,23.30
2019-03-21T19:16:37.804Z,22.80
2019-03-21T19:19:05.508Z,22.73
2019-03-21T19:21:33.147Z,20.97
2019-03-21T19:24:01.218Z,21.67
2019-03-21T19:26:29.396Z,21.40
2019-03-21T19:28:57.233Z,26.43
2019-03-21T19:31:24.856Z,23.47
2019-03-21T19:33:52.904Z,24.50
2019-03-21T19:36:39.522Z,24.77
2019-03-21T19:39:08.086Z,23.23
2019-03-21T19:41:35.373Z,26.43
2019-03-21T19:44:02.953Z,22.80
2019-03-21T19:46:31.589Z,24.77
2019-03-21T19:48:59.144Z,25.37
2019-03-21T19:51:26.660Z,23.70
2019-03-21T19:53:54.067Z,24.90
2019-03-21T19:56:21.356Z,25.67
2019-03-21T19:58:48.737Z,27.50
2019-03-21T20:01:16.150Z,28.13
2019-03-21T20:03:43.545Z,24.03
2019-03-21T20:06:10.888Z,23.63
2019-03-21T20:08:38.398Z,25.93
2019-03-21T20:11:05.701Z,25.67
2019-03-21T20:13:33.089Z,23.23
2019-03-21T20:16:00.967Z,25.00
2019-03-21T20:18:29.178Z,24.43
2019-03-21T20:20:56.669Z,25.17
2019-03-21T20:23:24.406Z,26.80
2019-03-21T20:25:51.918Z,24.27
2019-03-21T20:28:20.025Z,25.73
2019-03-21T20:30:47.989Z,27.67
2019-03-21T20:33:16.770Z,27.97
2019-03-21T20:35:44.160Z,27.50
2019-03-21T20:38:11.725Z,23.87
2019-03-21T20:40:58.376Z,25.43
2019-03-21T20:43:25.840Z,26.27
2019-03-21T20:45:53.225Z,24.40
2019-03-21T20:48:39.420Z,25.37
2019-03-21T20:51:07.032Z,26.83
2019-03-21T20:53:34.670Z,26.63
2019-03-21T20:56:02.593Z,24.33
2019-03-21T20:58:30.219Z,25.60
2019-03-21T21:00:57.862Z,26.47
2019-03-21T21:03:25.613Z,25.17
2019-03-21T21:05:53.728Z,27.67
2019-03-21T21:08:21.406Z,26.63
2019-03-21T21:10:49.309Z,27.57
2019-03-21T21:13:16.919Z,25.17
2019-03-21T21:15:45.188Z,24.87
2019-03-21T21:18:32.545Z,25.50
2019-03-21T21:21:00.335Z,30.17
2019-03-21T21:23:28.485Z,28.17
2019-03-21T21:26:16.056Z,24.77
2019-03-21T21:28:44.047Z,26.97
2019-03-21T21:31:11.665Z,28.20
2019-03-21T21:33:39.660Z,24.10
2019-03-21T21:36:07.667Z,30.57
2019-03-21T21:38:35.435Z,27.03
2019-03-21T21:41:03.219Z,24.30
2019-03-21T21:43:30.860Z,24.83
2019-03-21T21:45:58.508Z,26.00
2019-03-21T21:48:26.687Z,26.33
2019-03-21T21:50:54.303Z,23.70
2019-03-21T21:53:21.953Z,23.97
2019-03-21T21:55:50.484Z,26.57
2019-03-21T21:58:18.146Z,25.60
2019-03-21T22:00:45.767Z,24.63
2019-03-21T22:03:14.084Z,28.00
2019-03-21T22:05:41.714Z,31.30
2019-03-21T22:08:09.527Z,28.20
2019-03-21T22:10:37.688Z,29.37
2019-03-21T22:13:05.303Z,30.10
2019-03-21T22:15:33.301Z,29.63
2019-03-21T22:18:01.058Z,28.33
2019-03-21T22:20:29.243Z,26.67
2019-03-21T22:22:56.871Z,27.13
2019-03-21T22:25:25.305Z,26.50
2019-03-21T22:27:53.783Z,26.57
2019-03-21T22:30:21.766Z,22.70
2019-03-21T22:32:50.147Z,22.50
2019-03-21T22:35:17.772Z,23.03
2019-03-21T22:37:45.752Z,21.33
2019-03-21T22:40:13.817Z,23.20
2019-03-21T22:42:41.475Z,23.80
2019-03-21T22:45:09.837Z,22.33
2019-03-21T22:47:37.503Z,23.80
2019-03-21T22:50:07.353Z,22.23
2019-03-21T22:52:35.311Z,22.87
2019-03-21T22:55:24.448Z,24.43
2019-03-21T22:57:52.191Z,20.53
2019-03-21T23:03:08.994Z,19.53
2019-03-21T23:05:36.382Z,19.87
2019-03-21T23:08:03.762Z,20.60
2019-03-21T23:10:31.181Z,18.90
2019-03-21T23:13:10.492Z,17.50
2019-03-21T23:15:37.839Z,15.83
2019-03-21T23:18:05.116Z,15.77
2019-03-21T23:20:32.390Z,17.03
2019-03-21T23:22:59.989Z,18.43
2019-03-21T23:25:27.262Z,18.93
2019-03-21T23:27:54.802Z,16.43
2019-03-21T23:30:22.198Z,18.73
2019-03-21T23:32:49.468Z,17.23
2019-03-21T23:35:16.751Z,17.97
2019-03-21T23:37:44.242Z,16.73
2019-03-21T23:40:11.833Z,19.37
2019-03-21T23:42:39.108Z,17.33
2019-03-21T23:45:06.773Z,17.13
2019-03-21T23:47:34.181Z,18.00
2019-03-21T23:50:01.571Z,20.10
2019-03-21T23:52:28.883Z,19.30
2019-03-21T23:54:56.263Z,22.40
2019-03-21T23:57:23.632Z,20.57
2019-03-21T23:59:51.042Z,20.50
